createdAt,value
2017-03-26T00:00:10.594Z,99.44
2017-03-26T00:01:32.449Z,99.07
2017-03-26T00:02:53.968Z,98.97
2017-03-26T00:04:15.179Z,99.16
2017-03-26T00:05:37.291Z,98.97
2017-03-26T00:06:59.800Z,99.44
2017-03-26T00:08:21.953Z,99.35
2017-03-26T00:09:43.573Z,98.97
2017-03-26T00:11:05.707Z,99.26
2017-03-26T00:12:27.524Z,99.44
2017-03-26T00:13:49.043Z,98.5
2017-03-26T00:15:10.539Z,98.79
2017-03-26T00:16:32.890Z,98.79
2017-03-26T00:17:54.398Z,98.69
2017-03-26T00:19:16.214Z,98.79
2017-03-26T00:20:38.230Z,98.5
2017-03-26T00:22:00.965Z,98.97
2017-03-26T00:23:23.075Z,99.07
2017-03-26T00:24:44.894Z,99.44
2017-03-26T00:26:06.073Z,99.99
2017-03-26T00:27:28.124Z,99.99
2017-03-26T00:28:49.933Z,99.92
2017-03-26T00:30:11.556Z,99.92
2017-03-26T00:31:33.524Z,99.92
2017-03-26T00:32:55.654Z,99.99
2017-03-26T00:34:17.491Z,99.73
2017-03-26T00:35:39.324Z,99.99
2017-03-26T00:37:00.855Z,99.99
2017-03-26T00:38:22.661Z,99.92
2017-03-26T00:39:44.804Z,99.54
2017-03-26T00:41:06.302Z,99.73
2017-03-26T00:42:28.435Z,99.73
2017-03-26T00:43:50.938Z,99.64
2017-03-26T00:45:12.767Z,99.83
2017-03-26T00:46:35.214Z,99.92
2017-03-26T00:47:57.389Z,99.99
2017-03-26T00:49:19.872Z,99.64
2017-03-26T00:50:41.754Z,99.44
2017-03-26T00:52:03.920Z,99.99
2017-03-26T00:53:25.744Z,99.99
2017-03-26T00:54:47.983Z,99.92
2017-03-26T00:56:09.491Z,99.92
2017-03-26T00:57:31.720Z,99.54
2017-03-26T00:58:53.625Z,99.73
2017-03-26T01:00:15.766Z,99.99
2017-03-26T01:01:36.775Z,99.73
2017-03-26T01:02:58.759Z,99.07
2017-03-26T01:04:20.596Z,99.44
2017-03-26T01:05:42.725Z,99.99
2017-03-26T01:07:05.224Z,99.92
2017-03-26T01:08:27.682Z,99.99
2017-03-26T01:09:49.805Z,99.99
2017-03-26T01:11:11.615Z,99.99
2017-03-26T01:12:33.576Z,99.99
2017-03-26T01:13:55.717Z,99.99
2017-03-26T01:15:17.885Z,99.99
2017-03-26T01:16:40.699Z,99.99
2017-03-26T01:18:01.886Z,99.99
2017-03-26T01:19:23.775Z,99.99
2017-03-26T01:20:45.309Z,99.99
2017-03-26T01:22:07.685Z,99.99
2017-03-26T01:23:29.195Z,99.99
2017-03-26T01:24:51.095Z,99.99
2017-03-26T01:26:12.953Z,99.99
2017-03-26T01:27:35.042Z,99.92
2017-03-26T01:28:55.971Z,99.99
2017-03-26T01:30:17.792Z,99.99
2017-03-26T01:31:39.571Z,99.99
2017-03-26T01:33:02.157Z,99.99
2017-03-26T01:34:24.015Z,99.99
2017-03-26T01:35:45.266Z,99.99
2017-03-26T01:37:06.771Z,99.99
2017-03-26T01:38:29.218Z,99.83
2017-03-26T01:39:51.666Z,99.83
2017-03-26T01:41:13.488Z,99.83
2017-03-26T01:42:35.616Z,99.92
2017-03-26T01:43:58.064Z,99.99
2017-03-26T01:45:19.929Z,99.92
2017-03-26T01:46:41.446Z,99.99
2017-03-26T01:48:03.912Z,99.83
2017-03-26T01:49:26.805Z,99.99
2017-03-26T01:50:48.078Z,99.99
2017-03-26T01:52:10.581Z,99.92
2017-03-26T01:53:32.394Z,99.99
2017-03-26T01:54:54.923Z,99.99
2017-03-26T01:56:17.065Z,99.92
2017-03-26T01:57:38.889Z,98.97
2017-03-26T01:59:01.007Z,98.97
2017-03-26T02:00:23.423Z,99.26
2017-03-26T02:01:45.209Z,99.92
2017-03-26T02:03:07.027Z,99.92
2017-03-26T02:04:29.155Z,99.99
2017-03-26T02:05:52.725Z,99.99
2017-03-26T02:07:14.543Z,99.64
2017-03-26T02:08:36.363Z,99.99
2017-03-26T02:09:57.968Z,99.99
2017-03-26T02:11:20.254Z,99.92
2017-03-26T02:12:41.848Z,99.99
2017-03-26T02:14:03.977Z,99.44
2017-03-26T02:15:25.482Z,99.99
2017-03-26T02:16:47.915Z,99.92
2017-03-26T02:18:09.760Z,99.99
2017-03-26T02:19:31.951Z,99.99
2017-03-26T02:20:54.017Z,99.99
2017-03-26T02:22:16.105Z,99.99
2017-03-26T02:23:37.904Z,99.99
2017-03-26T02:25:00.035Z,99.99
2017-03-26T02:26:22.197Z,99.83
2017-03-26T02:27:44.323Z,99.73
2017-03-26T02:29:05.834Z,99.64
2017-03-26T02:30:28.275Z,99.99
2017-03-26T02:31:49.567Z,99.99
2017-03-26T02:33:12.085Z,99.99
2017-03-26T02:34:33.878Z,99.54
2017-03-26T02:35:55.726Z,99.73
2017-03-26T02:37:17.566Z,99.83
2017-03-26T02:38:38.985Z,99.44
2017-03-26T02:40:01.146Z,99.73
2017-03-26T02:41:22.956Z,99.07
2017-03-26T02:42:44.457Z,98.69
2017-03-26T02:44:06.946Z,98.31
2017-03-26T02:45:28.763Z,98.31
2017-03-26T02:46:50.635Z,97.55
2017-03-26T02:48:12.564Z,97.92
2017-03-26T02:49:34.630Z,98.5
2017-03-26T02:50:55.919Z,98.21
2017-03-26T02:52:17.431Z,97.83
2017-03-26T02:53:39.258Z,96.6
2017-03-26T02:55:01.165Z,96.22
2017-03-26T02:56:23.282Z,96.12
2017-03-26T02:57:45.084Z,95.55
2017-03-26T02:59:06.938Z,95.17
2017-03-26T03:00:29.816Z,95.36
2017-03-26T03:01:52.238Z,95.27
2017-03-26T03:03:14.728Z,94.79
2017-03-26T03:04:36.536Z,94.79
2017-03-26T03:05:58.695Z,94.51
2017-03-26T03:07:20.038Z,94.89
2017-03-26T03:08:42.182Z,94.42
2017-03-26T03:10:03.369Z,95.27
2017-03-26T03:11:25.496Z,94.98
2017-03-26T03:12:47.649Z,95.36
2017-03-26T03:14:09.154Z,95.08
2017-03-26T03:15:30.344Z,95.17
2017-03-26T03:16:51.793Z,95.27
2017-03-26T03:18:13.294Z,95.27
2017-03-26T03:19:34.473Z,95.55
2017-03-26T03:20:56.311Z,94.89
2017-03-26T03:22:18.105Z,94.79
2017-03-26T03:23:39.967Z,94.89
2017-03-26T03:25:01.811Z,95.17
2017-03-26T03:26:24.219Z,94.89
2017-03-26T03:27:46.093Z,95.27
2017-03-26T03:29:07.659Z,94.98
2017-03-26T03:30:29.848Z,94.89
2017-03-26T03:31:51.994Z,95.08
2017-03-26T03:33:14.761Z,94.89
2017-03-26T03:34:36.900Z,94.7
2017-03-26T03:35:58.407Z,94.23
2017-03-26T03:37:20.518Z,94.32
2017-03-26T03:38:42.083Z,94.42
2017-03-26T03:40:04.327Z,94.23
2017-03-26T03:41:26.462Z,94.13
2017-03-26T03:42:48.921Z,94.51
2017-03-26T03:44:11.403Z,94.03
2017-03-26T03:45:33.555Z,94.23
2017-03-26T03:46:54.735Z,94.23
2017-03-26T03:48:16.598Z,94.13
2017-03-26T03:49:38.825Z,94.89
2017-03-26T03:51:00.639Z,94.51
2017-03-26T03:52:22.471Z,95.08
2017-03-26T03:53:44.341Z,95.65
2017-03-26T03:55:06.565Z,95.65
2017-03-26T03:56:28.686Z,95.27
2017-03-26T03:57:51.107Z,95.46
2017-03-26T03:59:13.247Z,95.55
2017-03-26T04:00:35.433Z,95.75
2017-03-26T04:01:57.673Z,95.08
2017-03-26T04:03:19.964Z,95.08
2017-03-26T04:04:41.146Z,95.27
2017-03-26T04:06:03.577Z,95.55
2017-03-26T04:07:25.776Z,95.36
2017-03-26T04:08:47.286Z,95.75
2017-03-26T04:10:08.805Z,95.55
2017-03-26T04:11:31.607Z,95.75
2017-03-26T04:12:53.434Z,95.65
2017-03-26T04:14:15.043Z,95.55
2017-03-26T04:15:37.171Z,94.89
2017-03-26T04:16:58.972Z,94.98
2017-03-26T04:18:20.464Z,95.27
2017-03-26T04:19:42.609Z,94.89
2017-03-26T04:21:04.774Z,94.51
2017-03-26T04:22:26.974Z,95.27
2017-03-26T04:23:48.322Z,95.27
2017-03-26T04:25:10.139Z,94.89
2017-03-26T04:26:32.269Z,94.51
2017-03-26T04:27:54.785Z,94.89
2017-03-26T04:29:17.234Z,94.6
2017-03-26T04:30:39.062Z,95.03
2017-03-26T04:32:01.238Z,94.6
2017-03-26T04:33:23.952Z,94.56
2017-03-26T04:34:46.387Z,94.65
2017-03-26T04:36:08.224Z,94.74
2017-03-26T04:37:30.038Z,94.51
2017-03-26T04:38:52.156Z,93.89
2017-03-26T04:40:13.998Z,94.37
2017-03-26T04:41:35.926Z,94.03
2017-03-26T04:42:57.756Z,94.27
2017-03-26T04:44:20.314Z,94.56
2017-03-26T04:45:42.460Z,94.65
2017-03-26T04:47:04.542Z,93.99
2017-03-26T04:48:25.920Z,94.65
2017-03-26T04:49:47.731Z,94.74
2017-03-26T04:51:09.293Z,94.13
2017-03-26T04:52:30.785Z,94.27
2017-03-26T04:53:51.985Z,94.18
2017-03-26T04:55:14.429Z,93.99
2017-03-26T04:56:36.263Z,93.79
2017-03-26T04:57:57.583Z,94.08
2017-03-26T04:59:19.078Z,94.27
2017-03-26T05:00:41.505Z,94.56
2017-03-26T05:02:03.294Z,94.18
2017-03-26T05:03:25.106Z,94.37
2017-03-26T05:04:47.246Z,94.46
2017-03-26T05:06:09.086Z,94.08
2017-03-26T05:07:30.573Z,94.18
2017-03-26T05:08:52.090Z,94.27
2017-03-26T05:10:14.220Z,94.08
2017-03-26T05:11:36.703Z,94.46
2017-03-26T05:12:58.814Z,94.18
2017-03-26T05:14:20.773Z,93.6
2017-03-26T05:15:42.281Z,93.32
2017-03-26T05:17:04.833Z,93.7
2017-03-26T05:18:26.390Z,93.7
2017-03-26T05:19:48.511Z,93.51
2017-03-26T05:21:10.654Z,93.13
2017-03-26T05:22:32.544Z,93.7
2017-03-26T05:23:54.357Z,93.6
2017-03-26T05:25:15.946Z,93.6
2017-03-26T05:26:37.446Z,93.41
2017-03-26T05:27:59.928Z,93.7
2017-03-26T05:29:21.754Z,93.23
2017-03-26T05:30:43.875Z,93.23
2017-03-26T05:32:05.365Z,93.13
2017-03-26T05:33:27.866Z,93.32
2017-03-26T05:34:50.042Z,93.32
2017-03-26T05:36:12.542Z,93.51
2017-03-26T05:37:34.046Z,92.56
2017-03-26T05:38:56.183Z,93.32
2017-03-26T05:40:18.053Z,94.27
2017-03-26T05:41:39.868Z,94.08
2017-03-26T05:43:01.377Z,94.27
2017-03-26T05:44:23.878Z,93.51
2017-03-26T05:45:46.112Z,93.51
2017-03-26T05:47:07.996Z,94.27
2017-03-26T05:48:29.599Z,94.56
2017-03-26T05:49:52.044Z,94.18
2017-03-26T05:51:13.634Z,94.37
2017-03-26T05:52:35.434Z,93.79
2017-03-26T05:53:57.314Z,93.32
2017-03-26T05:55:20.029Z,93.23
2017-03-26T05:56:41.531Z,93.51
2017-03-26T05:58:03.686Z,93.32
2017-03-26T05:59:25.964Z,92.66
2017-03-26T06:00:47.839Z,92.46
2017-03-26T06:02:10.023Z,92.08
2017-03-26T06:03:31.908Z,92.32
2017-03-26T06:04:53.418Z,92.27
2017-03-26T06:06:14.949Z,92.66
2017-03-26T06:07:37.194Z,92.37
2017-03-26T06:08:59.005Z,92.61
2017-03-26T06:10:21.146Z,91.94
2017-03-26T06:11:42.942Z,91.85
2017-03-26T06:13:04.263Z,91.56
2017-03-26T06:14:26.184Z,90.8
2017-03-26T06:15:48.336Z,90.42
2017-03-26T06:17:10.466Z,90.14
2017-03-26T06:18:32.925Z,89.75
2017-03-26T06:19:54.456Z,89.85
2017-03-26T06:21:15.639Z,90.14
2017-03-26T06:22:38.054Z,90.89
2017-03-26T06:23:59.571Z,90.61
2017-03-26T06:25:21.143Z,90.33
2017-03-26T06:26:42.987Z,90.08
2017-03-26T06:28:05.063Z,90.08
2017-03-26T06:29:26.724Z,90.28
2017-03-26T06:30:49.184Z,89.89
2017-03-26T06:32:11.005Z,89.7
2017-03-26T06:33:33.438Z,89.42
2017-03-26T06:34:55.326Z,88.66
2017-03-26T06:36:17.239Z,88.37
2017-03-26T06:37:38.732Z,88.75
2017-03-26T06:39:00.553Z,88.94
2017-03-26T06:40:22.506Z,88.56
2017-03-26T06:41:44.342Z,88.46
2017-03-26T06:43:05.866Z,88.28
2017-03-26T06:44:27.930Z,87.99
2017-03-26T06:45:49.786Z,87.42
2017-03-26T06:47:11.937Z,87.52
2017-03-26T06:48:33.988Z,88.09
2017-03-26T06:49:56.378Z,88.28
2017-03-26T06:51:17.583Z,88.52
2017-03-26T06:52:39.738Z,88.85
2017-03-26T06:54:01.874Z,88.85
2017-03-26T06:55:24.128Z,88.56
2017-03-26T06:56:46.275Z,88.56
2017-03-26T06:58:08.175Z,88.18
2017-03-26T06:59:29.997Z,87.71
2017-03-26T07:00:52.320Z,87.42
2017-03-26T07:02:14.169Z,87.52
2017-03-26T07:03:35.985Z,87.42
2017-03-26T07:04:57.815Z,87.61
2017-03-26T07:06:19.618Z,87.52
2017-03-26T07:07:41.867Z,87.08
2017-03-26T07:09:03.455Z,87.18
2017-03-26T07:10:25.640Z,87.37
2017-03-26T07:11:47.774Z,87.37
2017-03-26T07:13:09.934Z,86.61
2017-03-26T07:14:32.095Z,87.18
2017-03-26T07:15:53.943Z,86.99
2017-03-26T07:17:17.075Z,86.51
2017-03-26T07:18:38.883Z,86.04
2017-03-26T07:20:01.374Z,86.22
2017-03-26T07:21:22.927Z,85.85
2017-03-26T07:22:45.361Z,86.42
2017-03-26T07:24:06.887Z,86.38
2017-03-26T07:25:29.025Z,87.08
2017-03-26T07:26:51.397Z,87.37
2017-03-26T07:28:14.149Z,86.8
2017-03-26T07:29:36.295Z,86.18
2017-03-26T07:30:58.433Z,86.13
2017-03-26T07:32:20.277Z,86.13
2017-03-26T07:33:42.151Z,86.8
2017-03-26T07:35:04.286Z,87.08
2017-03-26T07:36:25.786Z,87.18
2017-03-26T07:37:47.826Z,86.7
2017-03-26T07:39:10.225Z,86.13
2017-03-26T07:40:31.721Z,86.22
2017-03-26T07:41:53.892Z,85.85
2017-03-26T07:43:16.008Z,86.61
2017-03-26T07:44:37.774Z,86.04
2017-03-26T07:45:59.677Z,85.94
2017-03-26T07:47:21.209Z,85.85
2017-03-26T07:48:43.712Z,85.56
2017-03-26T07:50:05.865Z,84.65
2017-03-26T07:51:27.707Z,84.42
2017-03-26T07:52:50.157Z,84.13
2017-03-26T07:54:11.560Z,83.75
2017-03-26T07:55:32.874Z,83.37
2017-03-26T07:56:55.073Z,83.09
2017-03-26T07:58:17.209Z,83.47
2017-03-26T07:59:39.348Z,83.85
2017-03-26T08:01:01.479Z,84.13
2017-03-26T08:02:22.681Z,84.46
2017-03-26T08:03:44.842Z,84.56
2017-03-26T08:05:06.554Z,83.47
2017-03-26T08:06:28.995Z,83.94
2017-03-26T08:07:51.117Z,83.94
2017-03-26T08:09:13.379Z,83.28
2017-03-26T08:10:41.625Z,83.56
2017-03-26T08:12:04.500Z,82.99
2017-03-26T08:13:26.634Z,83.28
2017-03-26T08:14:47.840Z,83.18
2017-03-26T08:16:09.959Z,83.28
2017-03-26T08:17:32.375Z,83.65
2017-03-26T08:18:54.516Z,83.51
2017-03-26T08:20:17.053Z,82.93
2017-03-26T08:21:39.296Z,83.03
2017-03-26T08:23:01.745Z,83.13
2017-03-26T08:24:23.572Z,82.56
2017-03-26T08:25:46.054Z,82.08
2017-03-26T08:27:07.569Z,81.23
2017-03-26T08:28:29.858Z,81.6
2017-03-26T08:29:52.028Z,81.13
2017-03-26T08:31:13.991Z,81.17
2017-03-26T08:32:36.540Z,81.36
2017-03-26T08:33:58.934Z,81.26
2017-03-26T08:35:21.087Z,81.46
2017-03-26T08:36:43.572Z,80.98
2017-03-26T08:38:05.157Z,80.79
2017-03-26T08:39:26.946Z,79.36
2017-03-26T08:40:48.815Z,78.98
2017-03-26T08:42:10.653Z,78.59
2017-03-26T08:43:32.471Z,78.35
2017-03-26T08:44:55.128Z,78.64
2017-03-26T08:46:16.963Z,77.97
2017-03-26T08:47:39.096Z,77.93
2017-03-26T08:49:01.301Z,77.87
2017-03-26T08:50:23.758Z,77.78
2017-03-26T08:51:45.902Z,77.49
2017-03-26T08:53:08.385Z,77.97
2017-03-26T08:54:30.529Z,77.59
2017-03-26T08:55:53.064Z,77.97
2017-03-26T08:57:15.572Z,78.06
2017-03-26T08:58:37.744Z,77.93
2017-03-26T09:00:00.850Z,77.45
2017-03-26T09:01:24.165Z,77.55
2017-03-26T09:02:46.705Z,77.45
2017-03-26T09:04:08.887Z,77.97
2017-03-26T09:05:30.778Z,78.41
2017-03-26T09:06:53.171Z,78.22
2017-03-26T09:08:15.304Z,78.5
2017-03-26T09:09:37.451Z,78.5
2017-03-26T09:10:59.609Z,78.41
2017-03-26T09:12:22.358Z,78.03
2017-03-26T09:13:44.211Z,78.41
2017-03-26T09:15:06.368Z,78.03
2017-03-26T09:16:27.897Z,78.22
2017-03-26T09:17:50.046Z,77.64
2017-03-26T09:19:12.796Z,77.74
2017-03-26T09:20:35.358Z,77.74
2017-03-26T09:21:57.531Z,77.64
2017-03-26T09:23:20.117Z,77.55
2017-03-26T09:24:41.815Z,78.12
2017-03-26T09:26:04.325Z,78.59
2017-03-26T09:27:26.168Z,78.78
2017-03-26T09:28:48.886Z,79.32
2017-03-26T09:30:10.754Z,79.41
2017-03-26T09:31:32.896Z,79.51
2017-03-26T09:32:55.342Z,79.41
2017-03-26T09:34:18.159Z,79.13
2017-03-26T09:35:40.824Z,79.46
2017-03-26T09:37:02.674Z,79.32
2017-03-26T09:38:23.880Z,79.27
2017-03-26T09:39:46.577Z,80.27
2017-03-26T09:41:08.820Z,80.36
2017-03-26T09:42:30.896Z,80.55
2017-03-26T09:43:53.844Z,80.36
2017-03-26T09:45:17.615Z,80.46
2017-03-26T09:46:39.519Z,80.55
2017-03-26T09:48:01.996Z,80.08
2017-03-26T09:49:24.469Z,79.22
2017-03-26T09:50:46.925Z,78.88
2017-03-26T09:52:09.387Z,78.59
2017-03-26T09:53:31.224Z,78.5
2017-03-26T09:54:53.388Z,78.56
2017-03-26T09:56:16.112Z,78.98
2017-03-26T09:57:38.709Z,79.32
2017-03-26T09:58:59.905Z,79.89
2017-03-26T10:00:22.443Z,79.6
2017-03-26T10:01:45.193Z,79.8
2017-03-26T10:03:07.560Z,79.7
2017-03-26T10:04:29.700Z,79.8
2017-03-26T10:05:52.189Z,80.08
2017-03-26T10:07:14.323Z,79.89
2017-03-26T10:08:36.484Z,80.18
2017-03-26T10:09:58.695Z,80.08
2017-03-26T10:11:21.469Z,79.8
2017-03-26T10:12:43.555Z,79.22
2017-03-26T10:14:05.418Z,79.6
2017-03-26T10:15:28.011Z,79.22
2017-03-26T10:16:49.638Z,79.32
2017-03-26T10:18:12.444Z,79.17
2017-03-26T10:19:34.305Z,79.6
2017-03-26T10:20:56.790Z,79.27
2017-03-26T10:22:18.977Z,78.88
2017-03-26T10:23:41.481Z,78.88
2017-03-26T10:25:03.983Z,79.17
2017-03-26T10:26:26.237Z,79.17
2017-03-26T10:27:48.396Z,80.55
2017-03-26T10:29:10.847Z,81.7
2017-03-26T10:30:32.677Z,81.13
2017-03-26T10:31:54.823Z,81.13
2017-03-26T10:33:17.004Z,80.75
2017-03-26T10:34:39.157Z,80.46
2017-03-26T10:36:32.666Z,80.18
2017-03-26T10:37:54.528Z,79.27
2017-03-26T10:39:16.690Z,78.41
2017-03-26T10:40:39.435Z,78.5
2017-03-26T10:42:01.262Z,78.31
2017-03-26T10:43:23.105Z,78.5
2017-03-26T10:44:45.915Z,78.59
2017-03-26T10:46:08.404Z,79.17
2017-03-26T10:47:30.628Z,79.93
2017-03-26T10:48:52.873Z,79.83
2017-03-26T10:50:15.302Z,80.75
2017-03-26T10:51:37.792Z,80.65
2017-03-26T10:52:59.638Z,80.55
2017-03-26T10:54:20.823Z,79.99
2017-03-26T10:55:43.463Z,80.27
2017-03-26T10:57:05.068Z,80.75
2017-03-26T10:58:27.044Z,80.36
2017-03-26T10:59:49.526Z,79.7
2017-03-26T11:01:12.323Z,80.31
2017-03-26T11:02:34.865Z,79.89
2017-03-26T11:03:57.543Z,78.5
2017-03-26T11:05:19.722Z,78.41
2017-03-26T11:06:42.510Z,78.12
2017-03-26T11:08:04.375Z,79.36
2017-03-26T11:09:26.838Z,79.17
2017-03-26T11:10:48.993Z,78.41
2017-03-26T11:12:11.491Z,78.59
2017-03-26T11:13:33.334Z,78.59
2017-03-26T11:14:55.161Z,78.25
2017-03-26T11:16:17.340Z,78.06
2017-03-26T11:17:39.781Z,78.78
2017-03-26T11:19:01.328Z,78.16
2017-03-26T11:20:23.172Z,78.12
2017-03-26T11:21:45.015Z,78.59
2017-03-26T11:23:07.159Z,78.41
2017-03-26T11:24:29.361Z,78.5
2017-03-26T11:25:51.953Z,78.83
2017-03-26T11:27:14.176Z,78.78
2017-03-26T11:28:36.668Z,78.88
2017-03-26T11:29:59.271Z,78.31
2017-03-26T11:31:21.438Z,78.22
2017-03-26T11:32:44.110Z,78.78
2017-03-26T11:34:38.679Z,79.64
2017-03-26T11:36:00.648Z,78.78
2017-03-26T11:37:22.161Z,78.78
2017-03-26T11:38:44.741Z,78.59
2017-03-26T11:40:07.018Z,78.31
2017-03-26T11:41:29.182Z,78.5
2017-03-26T11:42:50.753Z,78.22
2017-03-26T11:44:13.193Z,77.69
2017-03-26T11:45:35.021Z,77.74
2017-03-26T11:46:57.207Z,78.59
2017-03-26T11:48:19.377Z,78.98
2017-03-26T11:49:42.157Z,79.27
2017-03-26T11:51:04.373Z,78.78
2017-03-26T11:52:26.946Z,78.31
2017-03-26T11:53:49.127Z,78.03
2017-03-26T11:55:11.898Z,77.93
2017-03-26T11:56:34.349Z,78.59
2017-03-26T11:57:56.296Z,78.22
2017-03-26T11:59:18.890Z,77.64
2017-03-26T12:00:41.724Z,76.92
2017-03-26T12:02:03.885Z,76.16
2017-03-26T12:03:26.080Z,76.25
2017-03-26T12:04:48.563Z,75.59
2017-03-26T12:06:11.441Z,75.96
2017-03-26T12:07:33.643Z,76.25
2017-03-26T12:08:55.789Z,75.59
2017-03-26T12:10:17.957Z,76.54
2017-03-26T12:11:40.706Z,76.73
2017-03-26T12:13:03.192Z,76.16
2017-03-26T12:14:25.844Z,74.54
2017-03-26T12:15:48.504Z,74.06
2017-03-26T12:17:10.660Z,73.33
2017-03-26T12:18:33.172Z,74.48
2017-03-26T12:19:55.959Z,72.57
2017-03-26T12:21:18.638Z,70.51
2017-03-26T12:22:41.524Z,69.02
2017-03-26T12:24:04.184Z,68.82
2017-03-26T12:25:26.366Z,68.54
2017-03-26T12:26:48.566Z,68.19
2017-03-26T12:28:11.830Z,65.74
2017-03-26T12:29:34.814Z,67.33
2017-03-26T12:30:56.977Z,66.28
2017-03-26T12:32:19.279Z,66.28
2017-03-26T12:33:41.945Z,66.38
2017-03-26T12:35:04.497Z,66.66
2017-03-26T12:36:26.387Z,65.45
2017-03-26T12:37:48.557Z,64.78
2017-03-26T12:39:11.485Z,63.29
2017-03-26T12:40:33.733Z,63.19
2017-03-26T12:41:56.224Z,62.62
2017-03-26T12:43:18.385Z,63.57
2017-03-26T12:44:40.926Z,62.33
2017-03-26T12:46:03.176Z,62.21
2017-03-26T12:47:25.360Z,61.38
2017-03-26T12:48:47.846Z,61.19
2017-03-26T12:50:10.425Z,62.01
2017-03-26T12:51:32.707Z,61.28
2017-03-26T12:52:54.555Z,60.61
2017-03-26T12:54:16.728Z,61.69
2017-03-26T12:55:39.285Z,62.97
2017-03-26T12:57:01.156Z,62.21
2017-03-26T12:58:22.998Z,62.33
2017-03-26T12:59:45.169Z,62.59
2017-03-26T13:01:07.774Z,62.68
2017-03-26T13:02:30.228Z,61.76
2017-03-26T13:03:52.738Z,61.28
2017-03-26T13:05:14.897Z,61.38
2017-03-26T13:06:37.464Z,61.38
2017-03-26T13:07:59.941Z,62.33
2017-03-26T13:09:22.438Z,61.38
2017-03-26T13:10:44.971Z,61.41
2017-03-26T13:12:07.445Z,61.02
2017-03-26T13:13:29.632Z,61.12
2017-03-26T13:14:51.159Z,61.6
2017-03-26T13:16:13.650Z,61.19
2017-03-26T13:17:36.105Z,62.3
2017-03-26T13:18:57.953Z,63.54
2017-03-26T13:20:19.884Z,62.14
2017-03-26T13:21:42.373Z,63
2017-03-26T13:23:04.296Z,62.97
2017-03-26T13:24:26.795Z,64.18
2017-03-26T13:25:48.941Z,66.09
2017-03-26T13:27:10.465Z,66.66
2017-03-26T13:28:32.684Z,68.44
2017-03-26T13:29:55.631Z,68.7
2017-03-26T13:31:19.757Z,68.35
2017-03-26T13:32:42.288Z,68.79
2017-03-26T13:34:05.087Z,69.17
2017-03-26T13:35:27.836Z,70.13
2017-03-26T13:36:50.315Z,71.23
2017-03-26T13:38:12.789Z,70.67
2017-03-26T13:39:35.309Z,70.98
2017-03-26T13:40:57.209Z,70.95
2017-03-26T13:42:19.319Z,71.52
2017-03-26T13:43:41.485Z,71.52
2017-03-26T13:45:03.884Z,73.05
2017-03-26T13:46:26.366Z,73.01
2017-03-26T13:47:48.235Z,73.21
2017-03-26T13:49:10.525Z,73.87
2017-03-26T13:50:33.360Z,74.06
2017-03-26T13:51:55.196Z,74.5
2017-03-26T13:53:17.655Z,75.07
2017-03-26T13:54:40.345Z,75.93
2017-03-26T13:56:02.820Z,76.03
2017-03-26T13:57:24.659Z,76.88
2017-03-26T13:58:46.862Z,76.4
2017-03-26T14:00:09.398Z,75.93
2017-03-26T14:01:32.272Z,75.64
2017-03-26T14:02:54.926Z,74.92
2017-03-26T14:04:48.903Z,74.98
2017-03-26T14:06:11.381Z,74.35
2017-03-26T14:07:33.442Z,73.58
2017-03-26T14:08:55.659Z,73.77
2017-03-26T14:10:17.853Z,74.06
2017-03-26T14:11:40.042Z,73.58
2017-03-26T14:13:02.270Z,73.01
2017-03-26T14:14:24.743Z,73.01
2017-03-26T14:15:46.463Z,72.44
2017-03-26T14:17:08.752Z,72.53
2017-03-26T14:18:30.574Z,72.44
2017-03-26T14:19:52.697Z,72.34
2017-03-26T14:21:14.912Z,72.44
2017-03-26T14:22:37.660Z,72.28
2017-03-26T14:23:59.939Z,72.09
2017-03-26T14:25:22.092Z,71.62
2017-03-26T14:26:44.234Z,71.91
2017-03-26T14:28:06.782Z,71.62
2017-03-26T14:29:29.319Z,70.38
2017-03-26T14:30:50.925Z,70.67
2017-03-26T14:32:12.490Z,69.74
2017-03-26T14:33:35.241Z,68.22
2017-03-26T14:34:57.739Z,67.93
2017-03-26T14:36:19.741Z,67.07
2017-03-26T14:37:41.885Z,68.12
2017-03-26T14:39:04.023Z,69.14
2017-03-26T14:40:25.878Z,68.28
2017-03-26T14:41:47.762Z,69.04
2017-03-26T14:43:09.923Z,68.76
2017-03-26T14:44:32.747Z,69.04
2017-03-26T14:45:55.626Z,69.43
2017-03-26T14:47:18.018Z,68.76
2017-03-26T14:48:40.562Z,70.28
2017-03-26T14:50:03.085Z,70
2017-03-26T14:51:25.399Z,70.86
2017-03-26T14:52:47.750Z,70.47
2017-03-26T14:54:10.656Z,70.19
2017-03-26T14:55:33.571Z,69.81
2017-03-26T14:56:55.975Z,70
2017-03-26T14:58:18.904Z,69.71
2017-03-26T14:59:41.476Z,69.52
2017-03-26T15:01:03.962Z,69.43
2017-03-26T15:02:26.159Z,68.95
2017-03-26T15:03:47.678Z,68.47
2017-03-26T15:05:10.296Z,69.04
2017-03-26T15:06:33.115Z,69.14
2017-03-26T15:07:55.616Z,68.38
2017-03-26T15:09:17.798Z,67.71
2017-03-26T15:10:40.323Z,66.47
2017-03-26T15:12:02.772Z,66.66
2017-03-26T15:13:24.944Z,66.85
2017-03-26T15:14:47.178Z,68.57
2017-03-26T15:16:09.357Z,67.8
2017-03-26T15:17:31.483Z,67.99
2017-03-26T15:18:53.663Z,67.42
2017-03-26T15:20:15.188Z,66.09
2017-03-26T15:21:37.670Z,67.9
2017-03-26T15:23:00.501Z,68.47
2017-03-26T15:24:22.367Z,68.28
2017-03-26T15:25:44.644Z,67.04
2017-03-26T15:27:06.482Z,67.9
2017-03-26T15:28:29.033Z,67.61
2017-03-26T15:29:51.340Z,67.14
2017-03-26T15:31:13.811Z,67.23
2017-03-26T15:32:35.345Z,68.47
2017-03-26T15:33:57.849Z,67.04
2017-03-26T15:35:20.047Z,67.33
2017-03-26T15:36:42.530Z,66.94
2017-03-26T15:38:05.766Z,66.28
2017-03-26T15:39:28.568Z,64.28
2017-03-26T15:40:51.065Z,64.18
2017-03-26T15:42:13.219Z,64.28
2017-03-26T15:43:35.064Z,65.23
2017-03-26T15:44:57.911Z,65.42
2017-03-26T15:46:20.415Z,66.28
2017-03-26T15:47:42.907Z,65.99
2017-03-26T15:49:04.746Z,66.75
2017-03-26T15:50:26.943Z,66.94
2017-03-26T15:51:49.115Z,66.47
2017-03-26T15:53:11.586Z,66.09
2017-03-26T15:54:34.073Z,66.28
2017-03-26T15:55:56.215Z,67.04
2017-03-26T15:57:18.525Z,66.09
2017-03-26T15:58:40.785Z,64.56
2017-03-26T16:00:02.657Z,63.8
2017-03-26T16:01:24.752Z,64.09
2017-03-26T16:02:47.009Z,64.65
2017-03-26T16:04:09.541Z,64.47
2017-03-26T16:05:31.813Z,65.61
2017-03-26T16:06:53.726Z,65.89
2017-03-26T16:08:16.191Z,65.96
2017-03-26T16:09:38.464Z,65.67
2017-03-26T16:11:01.096Z,66.05
2017-03-26T16:12:23.898Z,66.53
2017-03-26T16:13:46.061Z,66.91
2017-03-26T16:15:08.527Z,67.39
2017-03-26T16:16:30.364Z,66.82
2017-03-26T16:17:52.971Z,67.29
2017-03-26T16:19:14.542Z,67.77
2017-03-26T16:20:36.072Z,67.96
2017-03-26T16:21:57.916Z,68.44
2017-03-26T16:23:20.721Z,68.05
2017-03-26T16:24:42.995Z,68.15
2017-03-26T16:26:05.143Z,68.53
2017-03-26T16:27:27.436Z,68.53
2017-03-26T16:28:49.917Z,68.15
2017-03-26T16:30:11.912Z,68.63
2017-03-26T16:31:34.093Z,68.44
2017-03-26T16:32:56.574Z,68.91
2017-03-26T16:34:19.413Z,68.82
2017-03-26T16:35:41.905Z,68.91
2017-03-26T16:37:04.415Z,69.2
2017-03-26T16:38:26.666Z,69.48
2017-03-26T16:39:49.603Z,69.29
2017-03-26T16:41:11.163Z,69.77
2017-03-26T16:42:33.699Z,69.58
2017-03-26T16:43:55.554Z,69.68
2017-03-26T16:45:18.087Z,69.87
2017-03-26T16:46:40.595Z,69.68
2017-03-26T16:48:02.446Z,69.96
2017-03-26T16:49:25.035Z,70.15
2017-03-26T16:50:47.997Z,69.96
2017-03-26T16:52:09.530Z,70.53
2017-03-26T16:53:31.993Z,70.02
2017-03-26T16:54:53.838Z,70.4
2017-03-26T16:56:15.914Z,70.02
2017-03-26T16:57:38.078Z,70.69
2017-03-26T16:59:00.242Z,70.5
2017-03-26T17:00:22.396Z,70.59
2017-03-26T17:01:45.168Z,70.88
2017-03-26T17:03:07.342Z,71.17
2017-03-26T17:04:29.246Z,71.17
2017-03-26T17:05:51.419Z,71.07
2017-03-26T17:07:14.106Z,71.55
2017-03-26T17:09:07.942Z,72.21
2017-03-26T17:10:29.817Z,72.88
2017-03-26T17:11:51.968Z,72.6
2017-03-26T17:13:14.807Z,72.31
2017-03-26T17:14:36.757Z,72.69
2017-03-26T17:15:58.972Z,72.5
2017-03-26T17:17:21.803Z,73.22
2017-03-26T17:18:43.664Z,73.26
2017-03-26T17:20:06.251Z,73.13
2017-03-26T17:21:28.627Z,73.32
2017-03-26T17:22:51.477Z,74.75
2017-03-26T17:24:13.512Z,75.6
2017-03-26T17:25:35.547Z,75.79
2017-03-26T17:26:57.396Z,76.46
2017-03-26T17:28:19.859Z,77.03
2017-03-26T17:29:42.339Z,77.37
2017-03-26T17:31:04.499Z,77.76
2017-03-26T17:32:26.639Z,77.66
2017-03-26T17:33:49.548Z,77.09
2017-03-26T17:35:11.376Z,77.19
2017-03-26T17:36:33.845Z,77.85
2017-03-26T17:37:55.988Z,78.52
2017-03-26T17:39:18.515Z,79.19
2017-03-26T17:40:40.676Z,79.72
2017-03-26T17:42:03.137Z,79.81